sensor_id;sensor_type;location;lat;lon;timestamp;temperature;humidity
15105;DHT22;7653;48.994;9.212;2022-09-13T00:00:57;15.00;61.50
15105;DHT22;7653;48.994;9.212;2022-09-13T00:03:24;14.80;62.40
15105;DHT22;7653;48.994;9.212;2022-09-13T00:05:50;14.90;61.70
15105;DHT22;7653;48.994;9.212;2022-09-13T00:08:16;14.90;62.00
15105;DHT22;7653;48.994;9.212;2022-09-13T00:10:43;14.90;62.00
15105;DHT22;7653;48.994;9.212;2022-09-13T00:13:10;14.80;62.10
15105;DHT22;7653;48.994;9.212;2022-09-13T00:15:36;14.70;60.90
15105;DHT22;7653;48.994;9.212;2022-09-13T00:18:06;14.50;62.90
15105;DHT22;7653;48.994;9.212;2022-09-13T00:20:31;14.60;63.30
15105;DHT22;7653;48.994;9.212;2022-09-13T00:22:57;14.70;64.00
15105;DHT22;7653;48.994;9.212;2022-09-13T00:25:23;14.70;64.30
15105;DHT22;7653;48.994;9.212;2022-09-13T00:27:49;14.70;64.30
15105;DHT22;7653;48.994;9.212;2022-09-13T00:30:14;14.70;64.30
15105;DHT22;7653;48.994;9.212;2022-09-13T00:32:40;14.60;64.20
15105;DHT22;7653;48.994;9.212;2022-09-13T00:35:06;14.50;64.10
15105;DHT22;7653;48.994;9.212;2022-09-13T00:37:33;14.40;64.00
15105;DHT22;7653;48.994;9.212;2022-09-13T00:39:59;14.30;65.80
15105;DHT22;7653;48.994;9.212;2022-09-13T00:42:29;14.10;67.20
15105;DHT22;7653;48.994;9.212;2022-09-13T00:47:29;14.30;69.70
15105;DHT22;7653;48.994;9.212;2022-09-13T00:50:32;14.40;68.80
15105;DHT22;7653;48.994;9.212;2022-09-13T00:53:22;14.50;68.20
15105;DHT22;7653;48.994;9.212;2022-09-13T00:55:56;14.60;67.30
15105;DHT22;7653;48.994;9.212;2022-09-13T00:58:39;14.70;66.50
15105;DHT22;7653;48.994;9.212;2022-09-13T01:01:08;14.70;65.60
15105;DHT22;7653;48.994;9.212;2022-09-13T01:03:35;14.60;64.20
15105;DHT22;7653;48.994;9.212;2022-09-13T01:06:09;14.10;65.10
15105;DHT22;7653;48.994;9.212;2022-09-13T01:08:37;14.00;66.50
15105;DHT22;7653;48.994;9.212;2022-09-13T01:11:07;14.00;67.90
15105;DHT22;7653;48.994;9.212;2022-09-13T01:13:37;14.10;69.60
15105;DHT22;7653;48.994;9.212;2022-09-13T01:16:04;14.10;70.60
15105;DHT22;7653;48.994;9.212;2022-09-13T01:18:29;14.20;70.10
15105;DHT22;7653;48.994;9.212;2022-09-13T01:46:21;13.80;68.30
15105;DHT22;7653;48.994;9.212;2022-09-13T02:04:43;13.70;70.10
15105;DHT22;7653;48.994;9.212;2022-09-13T02:07:25;13.60;70.10
15105;DHT22;7653;48.994;9.212;2022-09-13T02:09:58;13.60;70.50
15105;DHT22;7653;48.994;9.212;2022-09-13T02:12:26;13.60;70.70
15105;DHT22;7653;48.994;9.212;2022-09-13T02:17:36;13.50;71.80
15105;DHT22;7653;48.994;9.212;2022-09-13T02:20:16;13.50;70.90
15105;DHT22;7653;48.994;9.212;2022-09-13T02:22:47;13.30;72.60
15105;DHT22;7653;48.994;9.212;2022-09-13T02:25:15;13.30;74.30
15105;DHT22;7653;48.994;9.212;2022-09-13T02:27:45;13.30;74.50
15105;DHT22;7653;48.994;9.212;2022-09-13T02:30:13;13.50;74.90
15105;DHT22;7653;48.994;9.212;2022-09-13T02:35:12;13.50;73.20
15105;DHT22;7653;48.994;9.212;2022-09-13T02:37:42;13.60;72.90
15105;DHT22;7653;48.994;9.212;2022-09-13T02:40:15;13.60;71.80
15105;DHT22;7653;48.994;9.212;2022-09-13T02:43:00;13.40;71.30
15105;DHT22;7653;48.994;9.212;2022-09-13T02:45:34;13.50;71.60
15105;DHT22;7653;48.994;9.212;2022-09-13T02:48:08;13.50;72.40
15105;DHT22;7653;48.994;9.212;2022-09-13T02:50:53;13.60;72.90
15105;DHT22;7653;48.994;9.212;2022-09-13T02:53:25;13.60;71.40
15105;DHT22;7653;48.994;9.212;2022-09-13T03:01:17;13.40;73.80
15105;DHT22;7653;48.994;9.212;2022-09-13T03:03:42;13.40;73.80
15105;DHT22;7653;48.994;9.212;2022-09-13T03:06:09;13.50;73.60
15105;DHT22;7653;48.994;9.212;2022-09-13T03:08:35;13.50;71.40
15105;DHT22;7653;48.994;9.212;2022-09-13T03:30:14;13.10;75.50
15105;DHT22;7653;48.994;9.212;2022-09-13T03:35:25;13.10;75.30
15105;DHT22;7653;48.994;9.212;2022-09-13T03:38:15;12.80;74.30
15105;DHT22;7653;48.994;9.212;2022-09-13T03:46:05;12.90;79.40
15105;DHT22;7653;48.994;9.212;2022-09-13T03:48:35;12.90;78.10
15105;DHT22;7653;48.994;9.212;2022-09-13T03:51:03;13.00;77.00
15105;DHT22;7653;48.994;9.212;2022-09-13T03:53:30;13.00;77.80
15105;DHT22;7653;48.994;9.212;2022-09-13T03:55:56;13.10;78.10
15105;DHT22;7653;48.994;9.212;2022-09-13T03:58:24;13.00;76.20
15105;DHT22;7653;48.994;9.212;2022-09-13T04:00:50;12.80;75.30
15105;DHT22;7653;48.994;9.212;2022-09-13T04:03:19;12.60;77.60
15105;DHT22;7653;48.994;9.212;2022-09-13T04:05:45;12.70;78.70
15105;DHT22;7653;48.994;9.212;2022-09-13T04:08:11;12.70;79.40
15105;DHT22;7653;48.994;9.212;2022-09-13T04:10:37;12.70;80.00
15105;DHT22;7653;48.994;9.212;2022-09-13T04:13:05;12.80;81.10
15105;DHT22;7653;48.994;9.212;2022-09-13T04:15:31;12.90;80.60
15105;DHT22;7653;48.994;9.212;2022-09-13T04:17:57;12.50;77.10
15105;DHT22;7653;48.994;9.212;2022-09-13T04:20:23;12.30;79.00
15105;DHT22;7653;48.994;9.212;2022-09-13T04:22:53;12.40;81.10
15105;DHT22;7653;48.994;9.212;2022-09-13T04:25:20;12.60;81.80
15105;DHT22;7653;48.994;9.212;2022-09-13T04:27:47;12.70;81.40
15105;DHT22;7653;48.994;9.212;2022-09-13T04:30:13;12.80;81.40
15105;DHT22;7653;48.994;9.212;2022-09-13T04:32:40;12.60;81.30
15105;DHT22;7653;48.994;9.212;2022-09-13T04:35:06;12.70;80.40
15105;DHT22;7653;48.994;9.212;2022-09-13T04:37:33;12.80;80.20
15105;DHT22;7653;48.994;9.212;2022-09-13T04:39:59;12.80;80.00
15105;DHT22;7653;48.994;9.212;2022-09-13T04:42:24;12.80;80.00
15105;DHT22;7653;48.994;9.212;2022-09-13T04:44:50;12.80;79.70
15105;DHT22;7653;48.994;9.212;2022-09-13T04:47:15;12.80;79.00
15105;DHT22;7653;48.994;9.212;2022-09-13T04:49:41;12.90;79.20
15105;DHT22;7653;48.994;9.212;2022-09-13T04:52:07;13.00;79.20
15105;DHT22;7653;48.994;9.212;2022-09-13T04:54:33;13.10;79.90
15105;DHT22;7653;48.994;9.212;2022-09-13T04:56:59;13.10;79.80
15105;DHT22;7653;48.994;9.212;2022-09-13T04:59:24;13.20;78.10
15105;DHT22;7653;48.994;9.212;2022-09-13T05:01:50;13.20;77.20
15105;DHT22;7653;48.994;9.212;2022-09-13T05:04:16;13.10;78.30
15105;DHT22;7653;48.994;9.212;2022-09-13T05:06:41;13.10;80.00
15105;DHT22;7653;48.994;9.212;2022-09-13T05:09:12;13.20;81.40
15105;DHT22;7653;48.994;9.212;2022-09-13T05:11:38;12.90;81.60
15105;DHT22;7653;48.994;9.212;2022-09-13T05:14:03;13.00;84.80
15105;DHT22;7653;48.994;9.212;2022-09-13T05:16:31;13.10;83.90
15105;DHT22;7653;48.994;9.212;2022-09-13T05:18:57;13.10;81.90
15105;DHT22;7653;48.994;9.212;2022-09-13T05:21:23;13.10;81.80
15105;DHT22;7653;48.994;9.212;2022-09-13T05:23:51;13.10;83.50
15105;DHT22;7653;48.994;9.212;2022-09-13T05:26:19;13.10;82.60
15105;DHT22;7653;48.994;9.212;2022-09-13T05:28:44;13.10;82.30
15105;DHT22;7653;48.994;9.212;2022-09-13T05:33:42;13.10;84.70
15105;DHT22;7653;48.994;9.212;2022-09-13T05:36:08;13.20;83.80
15105;DHT22;7653;48.994;9.212;2022-09-13T05:38:34;13.30;83.50
15105;DHT22;7653;48.994;9.212;2022-09-13T05:41:02;13.30;82.10
15105;DHT22;7653;48.994;9.212;2022-09-13T05:43:32;13.30;82.00
15105;DHT22;7653;48.994;9.212;2022-09-13T05:46:11;13.40;83.30
15105;DHT22;7653;48.994;9.212;2022-09-13T05:48:39;13.40;83.20
15105;DHT22;7653;48.994;9.212;2022-09-13T05:51:09;13.50;82.30
15105;DHT22;7653;48.994;9.212;2022-09-13T05:53:39;13.30;84.30
15105;DHT22;7653;48.994;9.212;2022-09-13T05:56:13;13.40;86.70
15105;DHT22;7653;48.994;9.212;2022-09-13T05:58:43;13.50;88.00
15105;DHT22;7653;48.994;9.212;2022-09-13T06:01:11;13.70;88.10
15105;DHT22;7653;48.994;9.212;2022-09-13T06:03:37;13.90;87.80
15105;DHT22;7653;48.994;9.212;2022-09-13T06:06:04;14.00;84.80
15105;DHT22;7653;48.994;9.212;2022-09-13T06:08:31;14.10;82.70
15105;DHT22;7653;48.994;9.212;2022-09-13T06:11:01;13.90;83.40
15105;DHT22;7653;48.994;9.212;2022-09-13T06:13:28;13.80;85.10
15105;DHT22;7653;48.994;9.212;2022-09-13T06:15:56;14.00;85.50
15105;DHT22;7653;48.994;9.212;2022-09-13T06:18:22;14.10;84.90
15105;DHT22;7653;48.994;9.212;2022-09-13T06:20:49;14.20;85.70
15105;DHT22;7653;48.994;9.212;2022-09-13T06:23:15;14.30;85.60
15105;DHT22;7653;48.994;9.212;2022-09-13T06:25:41;14.40;86.50
15105;DHT22;7653;48.994;9.212;2022-09-13T06:28:08;14.40;85.40
15105;DHT22;7653;48.994;9.212;2022-09-13T06:30:35;14.50;84.90
15105;DHT22;7653;48.994;9.212;2022-09-13T06:33:02;14.60;83.20
15105;DHT22;7653;48.994;9.212;2022-09-13T06:35:30;14.60;83.20
15105;DHT22;7653;48.994;9.212;2022-09-13T06:37:56;14.70;82.70
15105;DHT22;7653;48.994;9.212;2022-09-13T06:40:23;14.70;80.60
15105;DHT22;7653;48.994;9.212;2022-09-13T06:42:49;14.80;80.20
15105;DHT22;7653;48.994;9.212;2022-09-13T06:45:15;14.90;77.60
15105;DHT22;7653;48.994;9.212;2022-09-13T06:47:43;14.90;77.50
15105;DHT22;7653;48.994;9.212;2022-09-13T06:50:08;15.00;77.70
15105;DHT22;7653;48.994;9.212;2022-09-13T06:52:35;15.00;76.00
15105;DHT22;7653;48.994;9.212;2022-09-13T06:55:00;15.10;76.00
15105;DHT22;7653;48.994;9.212;2022-09-13T06:57:29;15.20;78.10
15105;DHT22;7653;48.994;9.212;2022-09-13T06:59:55;15.40;78.20
15105;DHT22;7653;48.994;9.212;2022-09-13T07:02:20;15.40;72.60
15105;DHT22;7653;48.994;9.212;2022-09-13T07:04:46;15.70;68.50
15105;DHT22;7653;48.994;9.212;2022-09-13T07:07:12;15.80;65.20
15105;DHT22;7653;48.994;9.212;2022-09-13T07:09:38;16.00;65.50
15105;DHT22;7653;48.994;9.212;2022-09-13T07:12:08;16.20;60.60
15105;DHT22;7653;48.994;9.212;2022-09-13T07:14:35;16.30;61.10
15105;DHT22;7653;48.994;9.212;2022-09-13T07:17:03;16.40;59.40
15105;DHT22;7653;48.994;9.212;2022-09-13T07:19:30;16.60;59.10
15105;DHT22;7653;48.994;9.212;2022-09-13T07:21:56;16.60;61.30
15105;DHT22;7653;48.994;9.212;2022-09-13T07:24:24;16.60;59.70
15105;DHT22;7653;48.994;9.212;2022-09-13T07:26:50;16.90;56.70
15105;DHT22;7653;48.994;9.212;2022-09-13T07:29:18;17.00;56.60
15105;DHT22;7653;48.994;9.212;2022-09-13T07:31:51;17.20;55.40
15105;DHT22;7653;48.994;9.212;2022-09-13T07:34:19;17.40;57.10
15105;DHT22;7653;48.994;9.212;2022-09-13T07:36:46;17.80;51.50
15105;DHT22;7653;48.994;9.212;2022-09-13T07:39:15;18.00;50.00
15105;DHT22;7653;48.994;9.212;2022-09-13T07:41:42;18.10;50.00
15105;DHT22;7653;48.994;9.212;2022-09-13T07:44:11;18.30;48.10
15105;DHT22;7653;48.994;9.212;2022-09-13T07:46:38;18.20;48.00
15105;DHT22;7653;48.994;9.212;2022-09-13T07:49:09;18.10;51.20
15105;DHT22;7653;48.994;9.212;2022-09-13T07:51:37;18.00;52.80
15105;DHT22;7653;48.994;9.212;2022-09-13T07:54:08;18.20;52.40
15105;DHT22;7653;48.994;9.212;2022-09-13T07:56:37;18.30;50.50
15105;DHT22;7653;48.994;9.212;2022-09-13T07:59:06;18.20;49.70
15105;DHT22;7653;48.994;9.212;2022-09-13T08:01:37;18.30;47.40
15105;DHT22;7653;48.994;9.212;2022-09-13T08:04:08;18.50;45.80
15105;DHT22;7653;48.994;9.212;2022-09-13T08:06:36;18.40;48.60
15105;DHT22;7653;48.994;9.212;2022-09-13T08:09:03;18.40;50.20
15105;DHT22;7653;48.994;9.212;2022-09-13T08:13:54;18.60;49.00
15105;DHT22;7653;48.994;9.212;2022-09-13T08:16:22;18.90;47.40
15105;DHT22;7653;48.994;9.212;2022-09-13T08:18:50;19.20;46.10
15105;DHT22;7653;48.994;9.212;2022-09-13T08:21:17;19.40;45.50
15105;DHT22;7653;48.994;9.212;2022-09-13T08:23:43;19.70;44.40
15105;DHT22;7653;48.994;9.212;2022-09-13T08:26:13;20.00;43.20
15105;DHT22;7653;48.994;9.212;2022-09-13T08:28:42;20.20;42.60
15105;DHT22;7653;48.994;9.212;2022-09-13T08:31:11;20.30;39.90
15105;DHT22;7653;48.994;9.212;2022-09-13T08:33:38;20.50;40.00
15105;DHT22;7653;48.994;9.212;2022-09-13T08:36:04;20.80;40.30
15105;DHT22;7653;48.994;9.212;2022-09-13T08:38:31;21.10;38.50
15105;DHT22;7653;48.994;9.212;2022-09-13T08:41:01;21.10;40.50
15105;DHT22;7653;48.994;9.212;2022-09-13T08:43:49;21.30;37.00
15105;DHT22;7653;48.994;9.212;2022-09-13T08:48:44;21.30;34.50
15105;DHT22;7653;48.994;9.212;2022-09-13T08:51:31;21.40;35.30
15105;DHT22;7653;48.994;9.212;2022-09-13T08:53:58;21.70;32.70
15105;DHT22;7653;48.994;9.212;2022-09-13T09:02:04;21.60;36.40
15105;DHT22;7653;48.994;9.212;2022-09-13T09:04:45;21.90;36.20
15105;DHT22;7653;48.994;9.212;2022-09-13T09:09:59;22.00;31.50
15105;DHT22;7653;48.994;9.212;2022-09-13T09:12:45;21.70;30.70
15105;DHT22;7653;48.994;9.212;2022-09-13T09:15:28;21.80;30.40
15105;DHT22;7653;48.994;9.212;2022-09-13T09:20:42;21.30;30.40
15105;DHT22;7653;48.994;9.212;2022-09-13T09:23:18;21.40;30.50
15105;DHT22;7653;48.994;9.212;2022-09-13T09:25:45;21.50;30.80
15105;DHT22;7653;48.994;9.212;2022-09-13T09:28:13;21.80;32.10
15105;DHT22;7653;48.994;9.212;2022-09-13T09:30:59;21.70;30.30
15105;DHT22;7653;48.994;9.212;2022-09-13T09:38:58;21.50;29.70
15105;DHT22;7653;48.994;9.212;2022-09-13T09:41:30;21.50;29.10
15105;DHT22;7653;48.994;9.212;2022-09-13T09:46:39;21.80;30.70
15105;DHT22;7653;48.994;9.212;2022-09-13T09:49:41;22.10;29.60
15105;DHT22;7653;48.994;9.212;2022-09-13T09:52:32;22.30;27.00
15105;DHT22;7653;48.994;9.212;2022-09-13T09:55:24;22.20;27.60
15105;DHT22;7653;48.994;9.212;2022-09-13T10:00:26;23.10;25.80
15105;DHT22;7653;48.994;9.212;2022-09-13T10:02:58;23.30;26.20
15105;DHT22;7653;48.994;9.212;2022-09-13T10:05:26;23.30;24.40
15105;DHT22;7653;48.994;9.212;2022-09-13T10:07:54;23.30;25.90
15105;DHT22;7653;48.994;9.212;2022-09-13T10:10:25;23.50;25.80
15105;DHT22;7653;48.994;9.212;2022-09-13T10:12:55;23.50;23.80
15105;DHT22;7653;48.994;9.212;2022-09-13T10:15:32;23.50;23.60
15105;DHT22;7653;48.994;9.212;2022-09-13T10:20:27;24.00;22.10
15105;DHT22;7653;48.994;9.212;2022-09-13T10:23:11;24.20;21.60
15105;DHT22;7653;48.994;9.212;2022-09-13T10:25:42;24.00;23.90
15105;DHT22;7653;48.994;9.212;2022-09-13T10:28:16;23.90;21.10
15105;DHT22;7653;48.994;9.212;2022-09-13T10:35:48;24.20;21.70
15105;DHT22;7653;48.994;9.212;2022-09-13T10:38:55;24.30;20.40
15105;DHT22;7653;48.994;9.212;2022-09-13T10:41:25;24.40;22.80
15105;DHT22;7653;48.994;9.212;2022-09-13T10:44:02;24.50;20.00
15105;DHT22;7653;48.994;9.212;2022-09-13T10:46:31;24.60;19.30
15105;DHT22;7653;48.994;9.212;2022-09-13T10:48:58;24.60;18.40
15105;DHT22;7653;48.994;9.212;2022-09-13T10:54:16;24.50;19.40
15105;DHT22;7653;48.994;9.212;2022-09-13T10:56:47;24.50;18.50
15105;DHT22;7653;48.994;9.212;2022-09-13T11:09:58;25.60;14.90
15105;DHT22;7653;48.994;9.212;2022-09-13T11:18:26;25.70;15.60
15105;DHT22;7653;48.994;9.212;2022-09-13T11:41:03;25.40;14.50
15105;DHT22;7653;48.994;9.212;2022-09-13T11:46:31;25.90;12.20
15105;DHT22;7653;48.994;9.212;2022-09-13T11:52:10;25.90;13.60
15105;DHT22;7653;48.994;9.212;2022-09-13T11:57:41;26.60;12.60
15105;DHT22;7653;48.994;9.212;2022-09-13T12:00:25;26.40;13.50
15105;DHT22;7653;48.994;9.212;2022-09-13T12:05:39;26.10;12.80
15105;DHT22;7653;48.994;9.212;2022-09-13T12:08:12;26.50;15.00
15105;DHT22;7653;48.994;9.212;2022-09-13T12:10:53;26.80;12.60
15105;DHT22;7653;48.994;9.212;2022-09-13T12:13:26;26.40;12.40
15105;DHT22;7653;48.994;9.212;2022-09-13T12:15:56;26.60;14.30
15105;DHT22;7653;48.994;9.212;2022-09-13T12:21:09;26.80;11.20
15105;DHT22;7653;48.994;9.212;2022-09-13T12:23:41;27.00;13.20
15105;DHT22;7653;48.994;9.212;2022-09-13T12:29:14;27.60;10.50
15105;DHT22;7653;48.994;9.212;2022-09-13T12:31:42;27.60;7.80
15105;DHT22;7653;48.994;9.212;2022-09-13T12:34:21;27.40;11.50
15105;DHT22;7653;48.994;9.212;2022-09-13T12:37:16;27.70;11.60
15105;DHT22;7653;48.994;9.212;2022-09-13T13:03:53;29.00;2.90
15105;DHT22;7653;48.994;9.212;2022-09-13T13:06:40;28.80;2.10
15105;DHT22;7653;48.994;9.212;2022-09-13T13:11:48;29.80;4.60
15105;DHT22;7653;48.994;9.212;2022-09-13T13:16:52;29.40;5.80
15105;DHT22;7653;48.994;9.212;2022-09-13T13:19:30;29.50;5.10
15105;DHT22;7653;48.994;9.212;2022-09-13T13:25:36;29.00;1.60
15105;DHT22;7653;48.994;9.212;2022-09-13T13:36:43;27.80;2.50
15105;DHT22;7653;48.994;9.212;2022-09-13T13:46:51;28.60;2.80
15105;DHT22;7653;48.994;9.212;2022-09-13T13:57:58;30.70;1.00
15105;DHT22;7653;48.994;9.212;2022-09-13T14:00:28;31.30;1.00
15105;DHT22;7653;48.994;9.212;2022-09-13T14:05:46;31.60;1.00
15105;DHT22;7653;48.994;9.212;2022-09-13T14:21:41;30.40;1.00
15105;DHT22;7653;48.994;9.212;2022-09-13T14:24:14;30.10;1.00
15105;DHT22;7653;48.994;9.212;2022-09-13T14:26:41;29.80;1.00
15105;DHT22;7653;48.994;9.212;2022-09-13T14:29:11;30.10;1.00
15105;DHT22;7653;48.994;9.212;2022-09-13T14:31:43;30.00;1.00
15105;DHT22;7653;48.994;9.212;2022-09-13T14:34:29;30.30;1.00
15105;DHT22;7653;48.994;9.212;2022-09-13T14:37:01;30.60;1.00
15105;DHT22;7653;48.994;9.212;2022-09-13T14:39:31;30.80;1.00
15105;DHT22;7653;48.994;9.212;2022-09-13T14:42:15;30.70;1.00
15105;DHT22;7653;48.994;9.212;2022-09-13T14:44:44;30.20;1.00
15105;DHT22;7653;48.994;9.212;2022-09-13T14:47:42;30.20;1.00
15105;DHT22;7653;48.994;9.212;2022-09-13T14:50:14;30.40;1.00
15105;DHT22;7653;48.994;9.212;2022-09-13T14:52:56;30.30;1.00
15105;DHT22;7653;48.994;9.212;2022-09-13T14:55:31;30.20;1.00
15105;DHT22;7653;48.994;9.212;2022-09-13T14:58:01;31.20;1.00
15105;DHT22;7653;48.994;9.212;2022-09-13T15:00:30;32.90;1.00
15105;DHT22;7653;48.994;9.212;2022-09-13T15:03:13;32.40;1.00
15105;DHT22;7653;48.994;9.212;2022-09-13T15:05:40;31.70;1.00
15105;DHT22;7653;48.994;9.212;2022-09-13T15:10:57;31.70;1.00
15105;DHT22;7653;48.994;9.212;2022-09-13T15:13:22;31.80;1.00
15105;DHT22;7653;48.994;9.212;2022-09-13T15:15:50;31.60;1.00
15105;DHT22;7653;48.994;9.212;2022-09-13T15:20:59;30.20;1.00
15105;DHT22;7653;48.994;9.212;2022-09-13T15:28:27;30.10;1.00
15105;DHT22;7653;48.994;9.212;2022-09-13T15:30:56;29.40;1.00
15105;DHT22;7653;48.994;9.212;2022-09-13T15:33:31;29.50;1.00
15105;DHT22;7653;48.994;9.212;2022-09-13T15:39:21;29.50;1.00
15105;DHT22;7653;48.994;9.212;2022-09-13T15:44:20;29.30;1.20
15105;DHT22;7653;48.994;9.212;2022-09-13T15:46:50;29.40;1.00
15105;DHT22;7653;48.994;9.212;2022-09-13T15:49:22;29.20;1.80
15105;DHT22;7653;48.994;9.212;2022-09-13T15:51:55;28.90;4.20
15105;DHT22;7653;48.994;9.212;2022-09-13T15:54:21;28.90;4.80
15105;DHT22;7653;48.994;9.212;2022-09-13T15:56:49;28.90;4.80
15105;DHT22;7653;48.994;9.212;2022-09-13T15:59:20;28.80;5.50
15105;DHT22;7653;48.994;9.212;2022-09-13T16:01:49;28.70;4.80
15105;DHT22;7653;48.994;9.212;2022-09-13T16:04:16;28.60;4.70
15105;DHT22;7653;48.994;9.212;2022-09-13T16:06:42;28.40;6.10
15105;DHT22;7653;48.994;9.212;2022-09-13T16:11:44;28.10;8.10
15105;DHT22;7653;48.994;9.212;2022-09-13T16:14:10;28.00;8.20
15105;DHT22;7653;48.994;9.212;2022-09-13T16:16:36;27.80;8.70
15105;DHT22;7653;48.994;9.212;2022-09-13T16:19:02;27.80;10.30
15105;DHT22;7653;48.994;9.212;2022-09-13T16:21:28;27.60;11.40
15105;DHT22;7653;48.994;9.212;2022-09-13T16:23:54;27.50;11.90
15105;DHT22;7653;48.994;9.212;2022-09-13T16:26:19;27.50;12.10
15105;DHT22;7653;48.994;9.212;2022-09-13T16:28:45;27.40;12.40
15105;DHT22;7653;48.994;9.212;2022-09-13T16:31:11;27.30;12.40
15105;DHT22;7653;48.994;9.212;2022-09-13T16:33:39;27.20;12.90
15105;DHT22;7653;48.994;9.212;2022-09-13T16:36:05;27.10;13.00
15105;DHT22;7653;48.994;9.212;2022-09-13T16:38:30;27.10;12.90
15105;DHT22;7653;48.994;9.212;2022-09-13T16:40:56;27.10;11.10
15105;DHT22;7653;48.994;9.212;2022-09-13T16:43:22;27.00;12.60
15105;DHT22;7653;48.994;9.212;2022-09-13T16:45:47;26.80;12.70
15105;DHT22;7653;48.994;9.212;2022-09-13T16:48:15;26.80;12.70
15105;DHT22;7653;48.994;9.212;2022-09-13T16:50:41;26.70;14.70
15105;DHT22;7653;48.994;9.212;2022-09-13T16:53:08;26.60;13.00
15105;DHT22;7653;48.994;9.212;2022-09-13T16:55:34;26.50;13.30
15105;DHT22;7653;48.994;9.212;2022-09-13T16:58:00;26.50;14.70
15105;DHT22;7653;48.994;9.212;2022-09-13T17:00:27;26.50;13.90
15105;DHT22;7653;48.994;9.212;2022-09-13T17:02:55;26.40;14.00
15105;DHT22;7653;48.994;9.212;2022-09-13T17:05:22;26.30;14.80
15105;DHT22;7653;48.994;9.212;2022-09-13T17:07:49;26.10;15.50
15105;DHT22;7653;48.994;9.212;2022-09-13T17:10:14;26.00;15.10
15105;DHT22;7653;48.994;9.212;2022-09-13T17:12:40;25.70;16.50
15105;DHT22;7653;48.994;9.212;2022-09-13T17:15:07;25.50;17.30
15105;DHT22;7653;48.994;9.212;2022-09-13T17:17:33;25.50;17.50
15105;DHT22;7653;48.994;9.212;2022-09-13T17:20:03;25.40;17.40
15105;DHT22;7653;48.994;9.212;2022-09-13T17:22:30;25.40;17.90
15105;DHT22;7653;48.994;9.212;2022-09-13T17:24:56;25.40;18.60
15105;DHT22;7653;48.994;9.212;2022-09-13T17:27:22;25.30;18.80
15105;DHT22;7653;48.994;9.212;2022-09-13T17:29:48;25.30;19.10
15105;DHT22;7653;48.994;9.212;2022-09-13T17:32:14;25.30;19.30
15105;DHT22;7653;48.994;9.212;2022-09-13T17:34:40;25.10;19.70
15105;DHT22;7653;48.994;9.212;2022-09-13T17:37:06;25.00;20.40
15105;DHT22;7653;48.994;9.212;2022-09-13T17:39:32;25.00;21.20
15105;DHT22;7653;48.994;9.212;2022-09-13T17:41:58;24.90;22.20
15105;DHT22;7653;48.994;9.212;2022-09-13T17:44:24;25.00;20.80
15105;DHT22;7653;48.994;9.212;2022-09-13T17:46:50;24.80;20.30
15105;DHT22;7653;48.994;9.212;2022-09-13T17:49:16;24.60;20.10
15105;DHT22;7653;48.994;9.212;2022-09-13T17:51:41;24.70;20.20
15105;DHT22;7653;48.994;9.212;2022-09-13T17:54:08;24.40;25.00
15105;DHT22;7653;48.994;9.212;2022-09-13T17:56:43;24.40;25.20
15105;DHT22;7653;48.994;9.212;2022-09-13T17:59:17;24.10;24.00
15105;DHT22;7653;48.994;9.212;2022-09-13T18:01:47;24.10;24.00
15105;DHT22;7653;48.994;9.212;2022-09-13T18:04:17;24.10;24.10
15105;DHT22;7653;48.994;9.212;2022-09-13T18:06:43;24.10;22.70
15105;DHT22;7653;48.994;9.212;2022-09-13T18:09:13;24.10;22.20
15105;DHT22;7653;48.994;9.212;2022-09-13T18:11:39;24.10;22.30
15105;DHT22;7653;48.994;9.212;2022-09-13T18:14:10;24.10;22.10
15105;DHT22;7653;48.994;9.212;2022-09-13T18:16:37;24.00;21.50
15105;DHT22;7653;48.994;9.212;2022-09-13T18:19:02;23.90;21.70
15105;DHT22;7653;48.994;9.212;2022-09-13T18:21:28;23.90;22.20
15105;DHT22;7653;48.994;9.212;2022-09-13T18:23:56;23.90;22.60
15105;DHT22;7653;48.994;9.212;2022-09-13T18:26:29;23.80;22.30
15105;DHT22;7653;48.994;9.212;2022-09-13T18:28:59;23.70;22.60
15105;DHT22;7653;48.994;9.212;2022-09-13T18:31:26;23.60;23.20
15105;DHT22;7653;48.994;9.212;2022-09-13T18:33:55;23.70;22.80
15105;DHT22;7653;48.994;9.212;2022-09-13T18:36:22;23.70;23.20
15105;DHT22;7653;48.994;9.212;2022-09-13T18:38:49;23.60;23.10
15105;DHT22;7653;48.994;9.212;2022-09-13T18:41:17;23.60;22.70
15105;DHT22;7653;48.994;9.212;2022-09-13T18:43:44;23.60;22.80
15105;DHT22;7653;48.994;9.212;2022-09-13T18:46:12;23.60;23.00
15105;DHT22;7653;48.994;9.212;2022-09-13T18:48:42;23.60;23.00
15105;DHT22;7653;48.994;9.212;2022-09-13T18:51:10;23.40;24.70
15105;DHT22;7653;48.994;9.212;2022-09-13T18:53:36;23.40;25.60
15105;DHT22;7653;48.994;9.212;2022-09-13T18:56:04;23.30;25.10
15105;DHT22;7653;48.994;9.212;2022-09-13T18:58:30;23.20;26.30
15105;DHT22;7653;48.994;9.212;2022-09-13T19:03:25;22.80;28.10
15105;DHT22;7653;48.994;9.212;2022-09-13T19:05:51;22.80;27.30
15105;DHT22;7653;48.994;9.212;2022-09-13T19:08:17;22.70;27.80
15105;DHT22;7653;48.994;9.212;2022-09-13T19:10:43;22.70;27.70
15105;DHT22;7653;48.994;9.212;2022-09-13T19:13:10;22.70;27.80
15105;DHT22;7653;48.994;9.212;2022-09-13T19:15:35;22.50;27.40
15105;DHT22;7653;48.994;9.212;2022-09-13T19:18:04;22.40;28.70
15105;DHT22;7653;48.994;9.212;2022-09-13T19:20:30;22.40;27.60
15105;DHT22;7653;48.994;9.212;2022-09-13T19:22:56;22.30;27.30
15105;DHT22;7653;48.994;9.212;2022-09-13T19:25:22;22.40;27.60
15105;DHT22;7653;48.994;9.212;2022-09-13T19:27:52;22.40;27.60
15105;DHT22;7653;48.994;9.212;2022-09-13T19:30:18;22.20;30.40
15105;DHT22;7653;48.994;9.212;2022-09-13T19:32:44;22.10;30.00
15105;DHT22;7653;48.994;9.212;2022-09-13T19:35:09;22.20;28.70
15105;DHT22;7653;48.994;9.212;2022-09-13T19:37:36;22.20;31.20
15105;DHT22;7653;48.994;9.212;2022-09-13T19:40:02;22.10;31.30
15105;DHT22;7653;48.994;9.212;2022-09-13T19:42:29;21.80;33.90
15105;DHT22;7653;48.994;9.212;2022-09-13T19:44:55;21.90;31.60
15105;DHT22;7653;48.994;9.212;2022-09-13T19:47:21;22.00;31.00
15105;DHT22;7653;48.994;9.212;2022-09-13T19:49:48;21.90;34.40
15105;DHT22;7653;48.994;9.212;2022-09-13T19:52:14;21.70;36.00
15105;DHT22;7653;48.994;9.212;2022-09-13T19:54:40;21.60;37.30
15105;DHT22;7653;48.994;9.212;2022-09-13T19:57:06;21.60;39.00
15105;DHT22;7653;48.994;9.212;2022-09-13T19:59:34;21.50;40.20
15105;DHT22;7653;48.994;9.212;2022-09-13T20:01:59;21.50;40.40
15105;DHT22;7653;48.994;9.212;2022-09-13T20:04:26;21.70;36.00
15105;DHT22;7653;48.994;9.212;2022-09-13T20:06:54;21.80;34.50
15105;DHT22;7653;48.994;9.212;2022-09-13T20:09:20;21.70;34.70
15105;DHT22;7653;48.994;9.212;2022-09-13T20:11:46;21.80;34.20
15105;DHT22;7653;48.994;9.212;2022-09-13T20:14:14;21.60;38.10
15105;DHT22;7653;48.994;9.212;2022-09-13T20:16:43;21.40;35.90
15105;DHT22;7653;48.994;9.212;2022-09-13T20:19:15;21.40;35.70
15105;DHT22;7653;48.994;9.212;2022-09-13T20:21:43;21.50;34.60
15105;DHT22;7653;48.994;9.212;2022-09-13T20:24:09;21.50;37.50
15105;DHT22;7653;48.994;9.212;2022-09-13T20:26:35;21.40;40.10
15105;DHT22;7653;48.994;9.212;2022-09-13T20:29:04;21.20;38.10
15105;DHT22;7653;48.994;9.212;2022-09-13T20:31:33;21.20;37.80